createdAt,value
2017-11-27T00:02:47.849Z,62.90
2017-11-27T00:07:50.437Z,62.90
2017-11-27T00:12:53.090Z,63.00
2017-11-27T00:17:55.704Z,63.20
2017-11-27T00:22:58.321Z,63.30
2017-11-27T00:28:00.930Z,63.80
2017-11-27T00:33:03.509Z,63.30
2017-11-27T00:38:06.200Z,63.40
2017-11-27T00:43:08.809Z,63.40
2017-11-27T00:48:12.029Z,63.40
2017-11-27T00:53:14.599Z,63.30
2017-11-27T00:58:17.204Z,63.30
2017-11-27T01:03:19.802Z,63.00
2017-11-27T01:08:22.914Z,62.80
2017-11-27T01:13:26.348Z,62.80
2017-11-27T01:18:28.912Z,62.70
2017-11-27T01:23:31.507Z,62.60
2017-11-27T01:28:34.068Z,62.60
2017-11-27T01:33:37.408Z,62.50
2017-11-27T01:38:40.016Z,62.30
2017-11-27T01:43:42.643Z,62.30
2017-11-27T01:48:45.226Z,62.20
2017-11-27T01:53:47.842Z,62.10
2017-11-27T01:58:50.472Z,62.80
2017-11-27T02:03:53.183Z,62.00
2017-11-27T02:08:55.822Z,62.00
2017-11-27T02:13:58.457Z,61.90
2017-11-27T02:19:01.074Z,61.80
2017-11-27T02:24:03.723Z,61.80
2017-11-27T02:29:07.107Z,61.70
2017-11-27T02:34:09.722Z,61.70
2017-11-27T02:39:13.006Z,61.80
2017-11-27T02:44:15.751Z,61.70
2017-11-27T02:49:19.105Z,62.30
2017-11-27T02:54:21.765Z,61.50
2017-11-27T02:59:24.408Z,61.50
2017-11-27T03:04:27.013Z,61.40
2017-11-27T03:09:29.605Z,61.30
2017-11-27T03:14:32.171Z,61.40
2017-11-27T03:19:34.776Z,61.40
2017-11-27T03:24:37.354Z,61.30
2017-11-27T03:29:39.967Z,61.20
2017-11-27T03:34:42.568Z,61.30
2017-11-27T03:39:45.155Z,61.30
2017-11-27T03:44:47.792Z,61.20
2017-11-27T03:49:50.369Z,61.10
2017-11-27T03:54:53.006Z,61.10
2017-11-27T03:59:55.619Z,61.10
2017-11-27T04:04:58.352Z,61.00
2017-11-27T04:10:00.911Z,61.00
2017-11-27T04:15:03.610Z,61.00
2017-11-27T04:20:06.259Z,61.00
2017-11-27T04:25:08.869Z,61.00
2017-11-27T04:30:11.569Z,60.80
2017-11-27T04:35:14.185Z,60.80
2017-11-27T04:40:17.512Z,60.60
2017-11-27T04:45:20.101Z,60.70
2017-11-27T04:50:23.572Z,60.70
2017-11-27T04:55:26.143Z,60.60
2017-11-27T05:00:28.729Z,60.60
2017-11-27T05:05:31.348Z,60.70
2017-11-27T05:10:34.021Z,60.60
2017-11-27T05:15:36.649Z,60.80
2017-11-27T05:20:39.290Z,60.60
2017-11-27T05:25:41.889Z,60.60
2017-11-27T05:30:44.503Z,60.50
2017-11-27T05:35:47.094Z,60.60
2017-11-27T05:40:50.484Z,60.50
2017-11-27T05:45:53.093Z,60.50
2017-11-27T05:50:55.778Z,60.40
2017-11-27T05:55:58.373Z,60.30
2017-11-27T06:01:00.989Z,60.30
2017-11-27T06:06:03.584Z,60.30
2017-11-27T06:11:06.172Z,60.40
2017-11-27T06:16:08.743Z,60.30
2017-11-27T06:21:11.317Z,60.20
2017-11-27T06:26:13.891Z,60.20
2017-11-27T06:31:16.521Z,60.30
2017-11-27T06:36:19.991Z,60.10
2017-11-27T06:41:22.558Z,60.20
2017-11-27T06:46:25.180Z,60.20
2017-11-27T06:51:27.864Z,60.20
2017-11-27T06:56:30.481Z,60.20
2017-11-27T07:01:33.121Z,60.20
2017-11-27T07:06:35.774Z,60.10
2017-11-27T07:11:38.570Z,60.10
2017-11-27T07:16:41.167Z,60.20
2017-11-27T07:21:43.787Z,60.20
2017-11-27T07:26:46.450Z,60.40
2017-11-27T07:31:49.074Z,60.40
2017-11-27T07:36:52.011Z,60.60
2017-11-27T07:41:54.598Z,60.90
2017-11-27T07:47:01.516Z,61.00
2017-11-27T07:52:04.203Z,61.10
2017-11-27T07:57:06.793Z,61.20
2017-11-27T08:02:09.429Z,61.20
2017-11-27T08:07:12.045Z,61.20
2017-11-27T08:12:14.632Z,61.30
2017-11-27T08:17:17.219Z,61.20
2017-11-27T08:22:19.804Z,61.20
2017-11-27T08:27:22.493Z,61.20
2017-11-27T08:32:25.714Z,61.20
2017-11-27T08:37:29.104Z,61.20
2017-11-27T08:42:31.776Z,61.20
2017-11-27T08:47:35.148Z,61.00
2017-11-27T08:52:37.715Z,61.00
2017-11-27T08:57:40.380Z,61.10
2017-11-27T09:02:44.401Z,61.10
2017-11-27T09:07:47.795Z,61.10
2017-11-27T09:12:50.397Z,61.10
2017-11-27T09:17:53.041Z,61.20
2017-11-27T09:22:56.765Z,61.10
2017-11-27T09:27:59.380Z,61.10
2017-11-27T09:33:01.985Z,60.80
2017-11-27T09:38:05.355Z,60.70
2017-11-27T09:43:08.839Z,60.80
2017-11-27T09:48:12.048Z,60.60
2017-11-27T09:53:14.634Z,60.50
2017-11-27T09:58:17.622Z,60.50
2017-11-27T10:03:20.782Z,60.40
2017-11-27T10:08:24.315Z,60.40
2017-11-27T10:13:27.571Z,60.40
2017-11-27T10:18:30.715Z,60.40
2017-11-27T10:23:34.161Z,60.40
2017-11-27T10:28:37.544Z,60.30
2017-11-27T10:33:40.953Z,60.50
2017-11-27T10:38:45.009Z,60.50
2017-11-27T10:43:48.169Z,60.40
2017-11-27T10:48:51.731Z,60.20
2017-11-27T10:53:55.623Z,60.20
2017-11-27T10:59:02.854Z,60.20
2017-11-27T11:04:08.834Z,60.90
2017-11-27T11:09:11.727Z,60.00
2017-11-27T11:14:14.525Z,59.90
2017-11-27T11:19:17.685Z,59.80
2017-11-27T11:24:20.934Z,59.90
2017-11-27T11:29:24.136Z,59.80
2017-11-27T11:34:27.365Z,59.70
2017-11-27T11:39:30.821Z,59.70
2017-11-27T11:44:33.576Z,59.80
2017-11-27T11:49:37.816Z,59.70
2017-11-27T11:54:41.664Z,59.60
2017-11-27T11:59:45.766Z,59.50
2017-11-27T12:04:49.591Z,59.60
2017-11-27T12:09:54.740Z,59.50
2017-11-27T12:14:58.737Z,59.50
2017-11-27T12:20:02.141Z,59.40
2017-11-27T12:25:06.246Z,59.30
2017-11-27T12:30:08.875Z,59.30
2017-11-27T12:35:11.529Z,59.20
2017-11-27T12:40:14.192Z,59.30
2017-11-27T12:45:17.529Z,59.20
2017-11-27T12:50:20.132Z,59.50
2017-11-27T12:55:23.511Z,59.10
2017-11-27T13:00:26.122Z,59.00
2017-11-27T13:05:28.710Z,59.00
2017-11-27T13:10:31.308Z,59.00
2017-11-27T13:15:33.874Z,59.00
2017-11-27T13:20:36.471Z,59.00
2017-11-27T13:25:39.090Z,58.90
2017-11-27T13:30:43.143Z,58.90
2017-11-27T13:35:45.745Z,58.90
2017-11-27T13:40:48.401Z,58.90
2017-11-27T13:45:50.991Z,58.90
2017-11-27T13:50:53.552Z,58.90
2017-11-27T13:55:56.402Z,58.90
2017-11-27T14:00:59.017Z,58.80
2017-11-27T14:06:01.723Z,58.80
2017-11-27T14:11:04.337Z,58.80
2017-11-27T14:16:06.916Z,58.80
2017-11-27T14:21:09.537Z,58.70
2017-11-27T14:26:12.371Z,58.60
2017-11-27T14:31:14.989Z,58.50
2017-11-27T14:36:17.600Z,58.60
2017-11-27T14:41:20.249Z,58.60
2017-11-27T14:46:22.888Z,58.60
2017-11-27T14:51:25.548Z,58.50
2017-11-27T14:56:28.120Z,58.50
2017-11-27T15:01:30.779Z,58.50
2017-11-27T15:06:33.454Z,58.40
2017-11-27T15:11:36.101Z,58.50
2017-11-27T15:16:38.704Z,58.50
2017-11-27T15:21:41.315Z,58.60
2017-11-27T15:26:43.981Z,58.60
2017-11-27T15:31:46.580Z,58.50
2017-11-27T15:36:49.225Z,58.80
2017-11-27T15:41:52.593Z,58.70
2017-11-27T15:46:55.208Z,58.60
2017-11-27T15:51:57.783Z,58.70
2017-11-27T15:57:00.468Z,58.90
2017-11-27T16:02:03.881Z,59.00
2017-11-27T16:07:06.476Z,59.00
2017-11-27T16:12:09.100Z,58.90
2017-11-27T16:17:11.712Z,58.90
2017-11-27T16:22:14.367Z,58.90
2017-11-27T16:27:16.992Z,58.80
2017-11-27T16:32:20.464Z,58.80
2017-11-27T16:37:23.046Z,58.80
2017-11-27T16:42:26.276Z,58.80
2017-11-27T16:47:28.890Z,58.70
2017-11-27T16:52:31.563Z,58.80
2017-11-27T16:57:34.147Z,58.80
2017-11-27T17:02:36.730Z,58.70
2017-11-27T17:07:39.297Z,58.70
2017-11-27T17:12:41.947Z,58.60
2017-11-27T17:17:44.619Z,58.50
2017-11-27T17:22:47.235Z,58.60
2017-11-27T17:27:51.423Z,58.40
2017-11-27T17:32:54.800Z,58.00
2017-11-27T17:37:57.371Z,58.40
2017-11-27T17:42:59.941Z,58.40
2017-11-27T17:48:03.770Z,58.50
2017-11-27T17:53:06.385Z,58.40
2017-11-27T17:58:09.229Z,58.20
2017-11-27T18:03:12.218Z,58.30
2017-11-27T18:08:14.861Z,58.20
2017-11-27T18:13:18.026Z,58.20
2017-11-27T18:18:20.687Z,58.00
2017-11-27T18:23:23.310Z,58.20
2017-11-27T18:28:26.012Z,58.30
2017-11-27T18:33:28.635Z,58.20
2017-11-27T18:38:31.846Z,58.20
2017-11-27T18:43:34.527Z,58.20
2017-11-27T18:48:37.124Z,57.90
2017-11-27T18:53:39.701Z,57.50
2017-11-27T18:58:42.296Z,57.00
2017-11-27T19:03:44.880Z,56.50
2017-11-27T19:08:47.448Z,55.90
2017-11-27T19:13:50.959Z,55.60
2017-11-27T19:18:53.566Z,55.00
2017-11-27T19:23:56.171Z,54.80
2017-11-27T19:28:58.736Z,55.00
2017-11-27T19:34:01.385Z,55.00
2017-11-27T19:39:04.005Z,55.20
2017-11-27T19:44:06.833Z,55.60
2017-11-27T19:49:10.832Z,55.90
2017-11-27T19:54:14.003Z,55.80
2017-11-27T19:59:16.629Z,55.80
2017-11-27T20:04:19.461Z,56.00
2017-11-27T20:09:22.126Z,56.30
2017-11-27T20:14:25.543Z,57.60
2017-11-27T20:19:29.684Z,57.20
2017-11-27T20:24:35.129Z,57.40
2017-11-27T20:29:37.704Z,57.40
2017-11-27T20:34:40.354Z,57.70
2017-11-27T20:39:43.244Z,57.90
2017-11-27T20:44:47.656Z,57.80
2017-11-27T20:49:52.969Z,58.10
2017-11-27T20:54:56.397Z,58.20
2017-11-27T20:59:59.013Z,58.60
2017-11-27T21:05:01.616Z,58.90
2017-11-27T21:10:04.253Z,59.20
2017-11-27T21:15:06.859Z,59.50
2017-11-27T21:20:09.467Z,59.70
2017-11-27T21:25:12.655Z,59.90
2017-11-27T21:30:15.555Z,60.00
2017-11-27T21:35:18.941Z,60.50
2017-11-27T21:40:23.311Z,60.40
2017-11-27T21:45:25.937Z,60.60
2017-11-27T21:50:29.508Z,60.60
2017-11-27T21:55:34.681Z,60.70
2017-11-27T22:00:37.260Z,60.80
2017-11-27T22:05:40.616Z,61.70
2017-11-27T22:10:43.239Z,62.40
2017-11-27T22:15:45.821Z,61.60
2017-11-27T22:20:48.418Z,61.50
2017-11-27T22:25:50.992Z,61.80
2017-11-27T22:30:53.644Z,62.00
2017-11-27T22:35:56.243Z,62.20
2017-11-27T22:40:59.613Z,62.20
2017-11-27T22:46:02.185Z,62.20
2017-11-27T22:51:04.789Z,62.30
2017-11-27T22:56:07.381Z,62.40
2017-11-27T23:01:09.971Z,62.30
2017-11-27T23:06:12.814Z,62.50
2017-11-27T23:11:15.481Z,62.60
2017-11-27T23:16:18.065Z,62.80
2017-11-27T23:21:20.681Z,62.90
2017-11-27T23:26:23.276Z,63.10
2017-11-27T23:31:25.870Z,63.30
2017-11-27T23:36:28.462Z,63.40
2017-11-27T23:41:31.227Z,63.60
2017-11-27T23:46:33.887Z,63.80
2017-11-27T23:51:36.492Z,63.90
2017-11-27T23:56:39.811Z,64.10
